Kashima Maru No,8 — 7JTF — position and weather

sailwx.info

Track history (hours):
 
Tides and Currents Weather Stations Pressure Air Temp Water Temp Dewpoint Dewpoint Depression Visibility Wind Speed Wind Dir Waves Ship Positions

Kashima Maru No,8

Last reported at 2017-Oct-14 05:06 UTC. Time now 2017-Oct-18 05:20 UTC.
Position N 34°08' E 135°02'.

Length 70 m; draft 4.5 m.

Type: Ship. MMSI: 431140000.

Date/timePositionNaut miles runAvg speedWind from/ knotsBaromVisibWave heightAir tempDewpointWater temp
2017-Oct-14 05:06N 34°08' E 135°02'212.3
2017-Oct-14 04:58N 34°08' E 135°04'3 0.8
2017-Oct-14 00:57N 34°07' E 135°08'0 0.5
2017-Oct-14 00:11N 34°07' E 135°07'0 0.0
2017-Oct-13 20:41N 34°07' E 135°07'0 0.0
2017-Oct-13 18:23N 34°07' E 135°07'0 0.0
2017-Oct-13 16:17N 34°07' E 135°07'0 0.0
2017-Oct-13 03:27N 34°07' E 135°08'0 0.0
2017-Oct-13 00:28N 34°07' E 135°08'0 0.9
2017-Oct-12 23:58N 34°08' E 135°07'0 0.0
2017-Oct-12 23:28N 34°08' E 135°07'1 1.3
2017-Oct-12 22:57N 34°08' E 135°07'511.2
2017-Oct-12 22:30N 34°13' E 135°07'1 1.9
2017-Oct-12 22:00N 34°13' E 135°08'0 0.0
2017-Oct-12 21:30N 34°13' E 135°08'0 0.0
2017-Oct-12 21:00N 34°13' E 135°08'0 0.0
2017-Oct-12 20:30N 34°13' E 135°08'0 0.0
2017-Oct-12 20:00N 34°13' E 135°08'0 0.0
2017-Oct-12 19:30N 34°13' E 135°08'0 0.0
2017-Oct-12 19:00N 34°13' E 135°08'0 0.0
2017-Oct-12 18:30N 34°13' E 135°08'0 0.0
2017-Oct-12 18:00N 34°13' E 135°08'0 0.0
2017-Oct-12 17:30N 34°13' E 135°08'0 0.0
2017-Oct-12 17:00N 34°13' E 135°08'0 0.0
2017-Oct-12 16:30N 34°13' E 135°08'0 0.0
2017-Oct-12 16:00N 34°13' E 135°08'0 0.0
2017-Oct-12 15:30N 34°13' E 135°08'0 0.0
2017-Oct-12 15:00N 34°13' E 135°08'0 0.0
2017-Oct-12 14:30N 34°13' E 135°08'0 0.0
2017-Oct-12 14:00N 34°13' E 135°08'0 0.0
2017-Oct-12 13:30N 34°13' E 135°08'0 0.0
2017-Oct-12 13:00N 34°13' E 135°08'0 0.0
2017-Oct-12 12:30N 34°13' E 135°08'0 0.0
2017-Oct-12 11:54N 34°13' E 135°08'0 0.0
2017-Oct-12 11:30N 34°13' E 135°08'0 0.0
2017-Oct-12 11:00N 34°13' E 135°08'0 0.0
2017-Oct-12 10:30N 34°13' E 135°08'0 0.0
2017-Oct-12 10:00N 34°13' E 135°08'0 0.0
2017-Oct-12 09:30N 34°13' E 135°08'0 0.0
2017-Oct-12 09:00N 34°13' E 135°08'0 0.0
2017-Oct-12 08:30N 34°13' E 135°08'0 0.0
2017-Oct-12 08:00N 34°13' E 135°08'0 0.0
2017-Oct-12 07:30N 34°13' E 135°08'0 0.0
2017-Oct-12 07:00N 34°13' E 135°08'0 0.0
2017-Oct-12 06:30N 34°13' E 135°08'0 0.0
2017-Oct-12 06:00N 34°13' E 135°08'0 0.0
2017-Oct-12 05:30N 34°13' E 135°08'0 0.0
2017-Oct-12 04:57N 34°13' E 135°08'0 0.0
2017-Oct-12 04:30N 34°13' E 135°08'0 0.0
2017-Oct-12 04:00N 34°13' E 135°08'0 0.0
2017-Oct-12 03:30N 34°13' E 135°08'0 0.0
2017-Oct-12 02:57N 34°13' E 135°08'0 0.0
2017-Oct-12 02:30N 34°13' E 135°08'0 0.0
2017-Oct-12 02:00N 34°13' E 135°08'0 0.0
2017-Oct-12 01:30N 34°13' E 135°08'0 0.0
2017-Oct-12 01:00N 34°13' E 135°08'0 0.0
2017-Oct-12 00:30N 34°13' E 135°08'0 0.0
2017-Oct-12 00:00N 34°13' E 135°08'0 0.0
2017-Oct-11 23:30N 34°13' E 135°08'1 1.0
2017-Oct-11 23:00N 34°13' E 135°08'3 5.4
2017-Oct-11 22:30N 34°10' E 135°07'1 2.4
2017-Oct-11 21:58N 34°09' E 135°08'0 0.0
2017-Oct-11 21:30N 34°09' E 135°08'0 0.0
2017-Oct-11 21:01N 34°09' E 135°08'0 0.0
2017-Oct-11 20:19N 34°09' E 135°08'0 0.0
2017-Oct-11 20:01N 34°09' E 135°08'0 0.0
2017-Oct-11 19:28N 34°09' E 135°08'0 0.0
2017-Oct-11 19:00N 34°09' E 135°08'0 0.0
2017-Oct-11 18:27N 34°09' E 135°08'0 0.0
2017-Oct-11 17:57N 34°09' E 135°08'0 0.0
2017-Oct-11 17:30N 34°09' E 135°08'0 0.0
2017-Oct-11 17:01N 34°09' E 135°08'1 0.0
2017-Oct-11 00:00N 34°09' E 135°09'0 0.1
2017-Oct-10 23:30N 34°09' E 135°09'0 0.1
2017-Oct-10 22:57N 34°09' E 135°09'0 0.0
2017-Oct-10 22:27N 34°09' E 135°09'0 0.0
2017-Oct-10 22:00N 34°09' E 135°09'0 0.0
2017-Oct-10 21:30N 34°09' E 135°09'0 0.0
2017-Oct-10 21:00N 34°09' E 135°09'0 0.0
2017-Oct-10 20:30N 34°09' E 135°09'0 0.0
2017-Oct-10 20:00N 34°09' E 135°09'0 0.0
2017-Oct-10 19:30N 34°09' E 135°09'0 0.0
2017-Oct-10 19:00N 34°09' E 135°09'0 0.0
2017-Oct-10 18:30N 34°09' E 135°09'0 0.0
2017-Oct-10 18:00N 34°09' E 135°09'0 0.0
2017-Oct-10 17:30N 34°09' E 135°09'0 0.0
2017-Oct-10 17:00N 34°09' E 135°09'0 0.0
2017-Oct-10 16:30N 34°09' E 135°09'0 0.0
2017-Oct-10 15:57N 34°09' E 135°09'0 0.0
2017-Oct-10 15:30N 34°09' E 135°09'0 0.0
2017-Oct-10 15:00N 34°09' E 135°09'0 0.0
2017-Oct-10 14:00N 34°09' E 135°09'0 0.0
2017-Oct-10 13:27N 34°09' E 135°09'0 0.0
2017-Oct-10 13:00N 34°09' E 135°09'0 0.0
2017-Oct-10 12:30N 34°09' E 135°09'0 0.0
2017-Oct-10 11:57N 34°09' E 135°09'0 0.0
2017-Oct-10 11:30N 34°09' E 135°09'0 0.0
2017-Oct-10 11:00N 34°09' E 135°09'0 0.0
2017-Oct-10 10:30N 34°09' E 135°09'0 0.0
2017-Oct-10 10:00N 34°09' E 135°09'0 0.1
2017-Oct-10 09:30N 34°09' E 135°09'0 0.0
2017-Oct-10 08:57N 34°09' E 135°09'0 0.0
2017-Oct-10 08:30N 34°09' E 135°09'0 0.0
2017-Oct-10 08:00N 34°09' E 135°09'0 0.0
2017-Oct-10 07:27N 34°09' E 135°09'0 0.0
2017-Oct-10 06:54N 34°09' E 135°09'0 0.0
2017-Oct-10 06:30N 34°09' E 135°09'0 0.0
2017-Oct-10 06:00N 34°09' E 135°09'0 0.0
2017-Oct-10 05:27N 34°09' E 135°09'0 0.0
2017-Oct-10 05:00N 34°09' E 135°09'0 0.0
2017-Oct-10 04:30N 34°09' E 135°09'0 0.0
2017-Oct-10 04:00N 34°09' E 135°09'0 0.0
2017-Oct-10 03:27N 34°09' E 135°09'0 0.0
2017-Oct-10 03:00N 34°09' E 135°09'0 0.0
2017-Oct-10 02:30N 34°09' E 135°09'0 0.1
2017-Oct-10 01:57N 34°09' E 135°09'0 0.0
2017-Oct-10 01:12N 34°09' E 135°09'0 0.2
2017-Oct-10 00:51N 34°09' E 135°09'0 0.0
2017-Oct-10 00:27N 34°09' E 135°09'0 0.0
2017-Oct-10 00:00N 34°09' E 135°09'0 0.1
2017-Oct-09 23:27N 34°09' E 135°09'0 0.0
2017-Oct-09 23:00N 34°09' E 135°09'0 0.0
2017-Oct-09 22:30N 34°09' E 135°09'0 0.0
2017-Oct-09 22:00N 34°09' E 135°09'0 0.0
2017-Oct-09 21:30N 34°09' E 135°09'0 0.0
2017-Oct-09 21:00N 34°09' E 135°09'0 0.0
2017-Oct-09 20:30N 34°09' E 135°09'0 0.0
2017-Oct-09 19:57N 34°09' E 135°09'0 0.0
2017-Oct-09 19:30N 34°09' E 135°09'0 0.0
2017-Oct-09 19:00N 34°09' E 135°09'0 0.0
2017-Oct-09 18:30N 34°09' E 135°09'0 0.0
2017-Oct-09 18:00N 34°09' E 135°09'0 0.0
2017-Oct-09 17:30N 34°09' E 135°09'0 0.0
2017-Oct-09 17:00N 34°09' E 135°09'0 0.0
2017-Oct-09 16:30N 34°09' E 135°09'0 0.0
2017-Oct-09 16:00N 34°09' E 135°09'0 0.0
2017-Oct-09 15:30N 34°09' E 135°09'0 0.0
2017-Oct-09 15:00N 34°09' E 135°09'0 0.0
2017-Oct-09 14:30N 34°09' E 135°09'0 0.1
2017-Oct-09 13:39N 34°09' E 135°09'0 0.0
2017-Oct-09 13:30N 34°09' E 135°09'0 0.0
2017-Oct-09 12:54N 34°09' E 135°09'0 0.0
2017-Oct-09 12:27N 34°09' E 135°09'0 0.0
2017-Oct-09 12:00N 34°09' E 135°09'0 0.0
2017-Oct-09 11:30N 34°09' E 135°09'0 0.0
2017-Oct-09 11:00N 34°09' E 135°09'0 0.0
2017-Oct-09 10:30N 34°09' E 135°09'2 3.5
2017-Oct-09 10:00N 34°09' E 135°07'1 0.1
2017-Oct-09 01:21N 34°07' E 135°08'0 0.0
2017-Oct-09 00:57N 34°07' E 135°08'0 0.0
2017-Oct-09 00:15N 34°07' E 135°08'0 0.0
2017-Oct-08 19:15N 34°07' E 135°08'0 0.0
2017-Oct-08 01:34N 34°07' E 135°08'0 2.7
2017-Oct-08 01:28N 34°07' E 135°08'0 0.4
2017-Oct-08 01:00N 34°07' E 135°08'0 0.0
2017-Oct-08 00:20N 34°07' E 135°08'0 0.1
2017-Oct-07 23:27N 34°07' E 135°07'0 0.0
2017-Oct-07 23:00N 34°07' E 135°07'0 0.0
2017-Oct-07 22:01N 34°07' E 135°07'0 0.0
2017-Oct-07 21:56N 34°07' E 135°07'0 0.1
2017-Oct-07 21:30N 34°07' E 135°07'0 0.0
2017-Oct-07 20:14N 34°07' E 135°07'0 0.0
2017-Oct-07 19:55N 34°07' E 135°07'0 0.1
2017-Oct-07 19:16N 34°07' E 135°08'0 0.1
2017-Oct-07 18:40N 34°07' E 135°07'0 0.1
2017-Oct-07 18:21N 34°07' E 135°07'0 0.0
2017-Oct-07 17:48N 34°07' E 135°07'0 0.1
2017-Oct-07 17:15N 34°07' E 135°08'0 0.0
2017-Oct-07 16:59N 34°07' E 135°08'0 0.1
2017-Oct-07 16:29N 34°07' E 135°08'0 0.0
2017-Oct-07 15:43N 34°07' E 135°08'0 0.0
2017-Oct-07 15:22N 34°07' E 135°08'0 0.1
2017-Oct-07 14:51N 34°07' E 135°07'0 0.1
2017-Oct-07 14:30N 34°07' E 135°08'0 0.0
2017-Oct-07 12:44N 34°07' E 135°08'0 0.0
2017-Oct-07 12:29N 34°07' E 135°08'0 0.0
2017-Oct-07 11:59N 34°07' E 135°08'0 0.0
2017-Oct-07 11:30N 34°07' E 135°08'0 0.0
2017-Oct-07 11:00N 34°07' E 135°08'0 0.0
2017-Oct-07 10:27N 34°07' E 135°08'0 0.0
2017-Oct-07 10:00N 34°07' E 135°08'0 0.0
2017-Oct-07 09:30N 34°07' E 135°08'0 0.0
2017-Oct-07 08:51N 34°07' E 135°08'0 0.0
2017-Oct-07 08:27N 34°07' E 135°08'0 0.0
2017-Oct-07 08:00N 34°07' E 135°08'0 0.0
2017-Oct-07 07:30N 34°07' E 135°08'0 0.0
2017-Oct-07 07:00N 34°07' E 135°08'0 0.0
2017-Oct-07 06:31N 34°07' E 135°08'0 0.0
2017-Oct-07 05:58N 34°07' E 135°08'0 0.0
2017-Oct-07 05:30N 34°07' E 135°08'0 0.0
2017-Oct-07 05:00N 34°07' E 135°08'0 0.0
2017-Oct-07 04:30N 34°07' E 135°08'0 0.0
2017-Oct-07 04:00N 34°07' E 135°08'0 0.0
2017-Oct-07 03:30N 34°07' E 135°08'0 0.2
2017-Oct-07 03:00N 34°07' E 135°08'0 0.1
2017-Oct-07 00:02N 34°07' E 135°08'0 1.9
2017-Oct-07 00:00N 34°07' E 135°08'2 3.1
2017-Oct-06 23:30N 34°09' E 135°07'1 2.1
2017-Oct-06 23:00N 34°09' E 135°08'0 0.0
2017-Oct-06 22:30N 34°09' E 135°08'0 0.0
2017-Oct-06 21:59N 34°09' E 135°08'0 0.1
2017-Oct-06 21:30N 34°09' E 135°08'0 0.0
2017-Oct-06 21:00N 34°09' E 135°08'0 0.1
2017-Oct-06 20:30N 34°09' E 135°08'0 0.0
2017-Oct-06 20:00N 34°09' E 135°08'0 0.0
2017-Oct-06 19:30N 34°09' E 135°08'0 0.1
2017-Oct-06 19:00N 34°09' E 135°08'0 0.0
2017-Oct-06 18:30N 34°09' E 135°08'0 0.1
2017-Oct-06 17:59N 34°09' E 135°08'0 0.1
2017-Oct-06 17:30N 34°09' E 135°08'0 0.1
2017-Oct-06 17:00N 34°09' E 135°08'0 0.1
2017-Oct-06 16:29N 34°09' E 135°08'0 0.0
2017-Oct-06 15:53N 34°09' E 135°08'0 0.0
2017-Oct-06 15:30N 34°09' E 135°08'0 0.1
2017-Oct-06 15:00N 34°09' E 135°08'0 0.0
2017-Oct-06 14:31N 34°09' E 135°08'0 0.0
2017-Oct-06 14:00N 34°09' E 135°08'0 0.1
2017-Oct-06 13:30N 34°09' E 135°08'0 0.0
2017-Oct-06 13:01N 34°09' E 135°08'0 0.0
2017-Oct-06 12:30N 34°09' E 135°08'0 0.0
2017-Oct-06 12:00N 34°09' E 135°08'0 0.0
2017-Oct-06 11:30N 34°09' E 135°08'0 0.0
2017-Oct-06 11:00N 34°09' E 135°08'0 0.0
2017-Oct-06 10:30N 34°09' E 135°08'0 0.1
2017-Oct-06 10:00N 34°09' E 135°08'0 0.0
2017-Oct-06 09:30N 34°09' E 135°08'0 0.0
2017-Oct-06 09:00N 34°09' E 135°08'0 0.0
2017-Oct-06 08:30N 34°09' E 135°08'0 0.0
2017-Oct-06 08:00N 34°09' E 135°08'0 0.0
2017-Oct-06 07:30N 34°09' E 135°08'0 0.2
2017-Oct-06 07:00N 34°09' E 135°08'611.6
2017-Oct-06 06:30N 34°08' E 135°01'  
Track history (hours):
 
Tides and Currents Weather Stations Pressure Air Temp Water Temp Dewpoint Dewpoint Depression Visibility Wind Speed Wind Dir Waves Ship Positions

Kashima Maru No,8

Last reported at 2017-Oct-14 05:06 UTC. Time now 2017-Oct-18 05:20 UTC.
Position N 34°08' E 135°02'.

Length 70 m; draft 4.5 m.

Type: Ship. MMSI: 431140000.

Date/timePositionNaut miles runAvg speedWind from/ knotsBaromVisibWave heightAir tempDewpointWater temp
2017-Oct-14 05:06N 34°08' E 135°02'212.3
2017-Oct-14 04:58N 34°08' E 135°04'3 0.8
2017-Oct-14 00:57N 34°07' E 135°08'0 0.5
2017-Oct-14 00:11N 34°07' E 135°07'0 0.0
2017-Oct-13 20:41N 34°07' E 135°07'0 0.0
2017-Oct-13 18:23N 34°07' E 135°07'0 0.0
2017-Oct-13 16:17N 34°07' E 135°07'0 0.0
2017-Oct-13 03:27N 34°07' E 135°08'0 0.0
2017-Oct-13 00:28N 34°07' E 135°08'0 0.9
2017-Oct-12 23:58N 34°08' E 135°07'0 0.0
2017-Oct-12 23:28N 34°08' E 135°07'1 1.3
2017-Oct-12 22:57N 34°08' E 135°07'511.2
2017-Oct-12 22:30N 34°13' E 135°07'1 1.9
2017-Oct-12 22:00N 34°13' E 135°08'0 0.0
2017-Oct-12 21:30N 34°13' E 135°08'0 0.0
2017-Oct-12 21:00N 34°13' E 135°08'0 0.0
2017-Oct-12 20:30N 34°13' E 135°08'0 0.0
2017-Oct-12 20:00N 34°13' E 135°08'0 0.0
2017-Oct-12 19:30N 34°13' E 135°08'0 0.0
2017-Oct-12 19:00N 34°13' E 135°08'0 0.0
2017-Oct-12 18:30N 34°13' E 135°08'0 0.0
2017-Oct-12 18:00N 34°13' E 135°08'0 0.0
2017-Oct-12 17:30N 34°13' E 135°08'0 0.0
2017-Oct-12 17:00N 34°13' E 135°08'0 0.0
2017-Oct-12 16:30N 34°13' E 135°08'0 0.0
2017-Oct-12 16:00N 34°13' E 135°08'0 0.0
2017-Oct-12 15:30N 34°13' E 135°08'0 0.0
2017-Oct-12 15:00N 34°13' E 135°08'0 0.0
2017-Oct-12 14:30N 34°13' E 135°08'0 0.0
2017-Oct-12 14:00N 34°13' E 135°08'0 0.0
2017-Oct-12 13:30N 34°13' E 135°08'0 0.0
2017-Oct-12 13:00N 34°13' E 135°08'0 0.0
2017-Oct-12 12:30N 34°13' E 135°08'0 0.0
2017-Oct-12 11:54N 34°13' E 135°08'0 0.0
2017-Oct-12 11:30N 34°13' E 135°08'0 0.0
2017-Oct-12 11:00N 34°13' E 135°08'0 0.0
2017-Oct-12 10:30N 34°13' E 135°08'0 0.0
2017-Oct-12 10:00N 34°13' E 135°08'0 0.0
2017-Oct-12 09:30N 34°13' E 135°08'0 0.0
2017-Oct-12 09:00N 34°13' E 135°08'0 0.0
2017-Oct-12 08:30N 34°13' E 135°08'0 0.0
2017-Oct-12 08:00N 34°13' E 135°08'0 0.0
2017-Oct-12 07:30N 34°13' E 135°08'0 0.0
2017-Oct-12 07:00N 34°13' E 135°08'0 0.0
2017-Oct-12 06:30N 34°13' E 135°08'0 0.0
2017-Oct-12 06:00N 34°13' E 135°08'0 0.0
2017-Oct-12 05:30N 34°13' E 135°08'0 0.0
2017-Oct-12 04:57N 34°13' E 135°08'0 0.0
2017-Oct-12 04:30N 34°13' E 135°08'0 0.0
2017-Oct-12 04:00N 34°13' E 135°08'0 0.0
2017-Oct-12 03:30N 34°13' E 135°08'0 0.0
2017-Oct-12 02:57N 34°13' E 135°08'0 0.0
2017-Oct-12 02:30N 34°13' E 135°08'0 0.0
2017-Oct-12 02:00N 34°13' E 135°08'0 0.0
2017-Oct-12 01:30N 34°13' E 135°08'0 0.0
2017-Oct-12 01:00N 34°13' E 135°08'0 0.0
2017-Oct-12 00:30N 34°13' E 135°08'0 0.0
2017-Oct-12 00:00N 34°13' E 135°08'0 0.0
2017-Oct-11 23:30N 34°13' E 135°08'1 1.0
2017-Oct-11 23:00N 34°13' E 135°08'3 5.4
2017-Oct-11 22:30N 34°10' E 135°07'1 2.4
2017-Oct-11 21:58N 34°09' E 135°08'0 0.0
2017-Oct-11 21:30N 34°09' E 135°08'0 0.0
2017-Oct-11 21:01N 34°09' E 135°08'0 0.0
2017-Oct-11 20:19N 34°09' E 135°08'0 0.0
2017-Oct-11 20:01N 34°09' E 135°08'0 0.0
2017-Oct-11 19:28N 34°09' E 135°08'0 0.0
2017-Oct-11 19:00N 34°09' E 135°08'0 0.0
2017-Oct-11 18:27N 34°09' E 135°08'0 0.0
2017-Oct-11 17:57N 34°09' E 135°08'0 0.0
2017-Oct-11 17:30N 34°09' E 135°08'0 0.0
2017-Oct-11 17:01N 34°09' E 135°08'1 0.0
2017-Oct-11 00:00N 34°09' E 135°09'0 0.1
2017-Oct-10 23:30N 34°09' E 135°09'0 0.1
2017-Oct-10 22:57N 34°09' E 135°09'0 0.0
2017-Oct-10 22:27N 34°09' E 135°09'0 0.0
2017-Oct-10 22:00N 34°09' E 135°09'0 0.0
2017-Oct-10 21:30N 34°09' E 135°09'0 0.0
2017-Oct-10 21:00N 34°09' E 135°09'0 0.0
2017-Oct-10 20:30N 34°09' E 135°09'0 0.0
2017-Oct-10 20:00N 34°09' E 135°09'0 0.0
2017-Oct-10 19:30N 34°09' E 135°09'0 0.0
2017-Oct-10 19:00N 34°09' E 135°09'0 0.0
2017-Oct-10 18:30N 34°09' E 135°09'0 0.0
2017-Oct-10 18:00N 34°09' E 135°09'0 0.0
2017-Oct-10 17:30N 34°09' E 135°09'0 0.0
2017-Oct-10 17:00N 34°09' E 135°09'0 0.0
2017-Oct-10 16:30N 34°09' E 135°09'0 0.0
2017-Oct-10 15:57N 34°09' E 135°09'0 0.0
2017-Oct-10 15:30N 34°09' E 135°09'0 0.0
2017-Oct-10 15:00N 34°09' E 135°09'0 0.0
2017-Oct-10 14:00N 34°09' E 135°09'0 0.0
2017-Oct-10 13:27N 34°09' E 135°09'0 0.0
2017-Oct-10 13:00N 34°09' E 135°09'0 0.0
2017-Oct-10 12:30N 34°09' E 135°09'0 0.0
2017-Oct-10 11:57N 34°09' E 135°09'0 0.0
2017-Oct-10 11:30N 34°09' E 135°09'0 0.0
2017-Oct-10 11:00N 34°09' E 135°09'0 0.0
2017-Oct-10 10:30N 34°09' E 135°09'0 0.0
2017-Oct-10 10:00N 34°09' E 135°09'0 0.1
2017-Oct-10 09:30N 34°09' E 135°09'0 0.0
2017-Oct-10 08:57N 34°09' E 135°09'0 0.0
2017-Oct-10 08:30N 34°09' E 135°09'0 0.0
2017-Oct-10 08:00N 34°09' E 135°09'0 0.0
2017-Oct-10 07:27N 34°09' E 135°09'0 0.0
2017-Oct-10 06:54N 34°09' E 135°09'0 0.0
2017-Oct-10 06:30N 34°09' E 135°09'0 0.0
2017-Oct-10 06:00N 34°09' E 135°09'0 0.0
2017-Oct-10 05:27N 34°09' E 135°09'0 0.0
2017-Oct-10 05:00N 34°09' E 135°09'0 0.0
2017-Oct-10 04:30N 34°09' E 135°09'0 0.0
2017-Oct-10 04:00N 34°09' E 135°09'0 0.0
2017-Oct-10 03:27N 34°09' E 135°09'0 0.0
2017-Oct-10 03:00N 34°09' E 135°09'0 0.0
2017-Oct-10 02:30N 34°09' E 135°09'0 0.1
2017-Oct-10 01:57N 34°09' E 135°09'0 0.0
2017-Oct-10 01:12N 34°09' E 135°09'0 0.2
2017-Oct-10 00:51N 34°09' E 135°09'0 0.0
2017-Oct-10 00:27N 34°09' E 135°09'0 0.0
2017-Oct-10 00:00N 34°09' E 135°09'0 0.1
2017-Oct-09 23:27N 34°09' E 135°09'0 0.0
2017-Oct-09 23:00N 34°09' E 135°09'0 0.0
2017-Oct-09 22:30N 34°09' E 135°09'0 0.0
2017-Oct-09 22:00N 34°09' E 135°09'0 0.0
2017-Oct-09 21:30N 34°09' E 135°09'0 0.0
2017-Oct-09 21:00N 34°09' E 135°09'0 0.0
2017-Oct-09 20:30N 34°09' E 135°09'0 0.0
2017-Oct-09 19:57N 34°09' E 135°09'0 0.0
2017-Oct-09 19:30N 34°09' E 135°09'0 0.0
2017-Oct-09 19:00N 34°09' E 135°09'0 0.0
2017-Oct-09 18:30N 34°09' E 135°09'0 0.0
2017-Oct-09 18:00N 34°09' E 135°09'0 0.0
2017-Oct-09 17:30N 34°09' E 135°09'0 0.0
2017-Oct-09 17:00N 34°09' E 135°09'0 0.0
2017-Oct-09 16:30N 34°09' E 135°09'0 0.0
2017-Oct-09 16:00N 34°09' E 135°09'0 0.0
2017-Oct-09 15:30N 34°09' E 135°09'0 0.0
2017-Oct-09 15:00N 34°09' E 135°09'0 0.0
2017-Oct-09 14:30N 34°09' E 135°09'0 0.1
2017-Oct-09 13:39N 34°09' E 135°09'0 0.0
2017-Oct-09 13:30N 34°09' E 135°09'0 0.0
2017-Oct-09 12:54N 34°09' E 135°09'0 0.0
2017-Oct-09 12:27N 34°09' E 135°09'0 0.0
2017-Oct-09 12:00N 34°09' E 135°09'0 0.0
2017-Oct-09 11:30N 34°09' E 135°09'0 0.0
2017-Oct-09 11:00N 34°09' E 135°09'0 0.0
2017-Oct-09 10:30N 34°09' E 135°09'2 3.5
2017-Oct-09 10:00N 34°09' E 135°07'1 0.1
2017-Oct-09 01:21N 34°07' E 135°08'0 0.0
2017-Oct-09 00:57N 34°07' E 135°08'0 0.0
2017-Oct-09 00:15N 34°07' E 135°08'0 0.0
2017-Oct-08 19:15N 34°07' E 135°08'0 0.0
2017-Oct-08 01:34N 34°07' E 135°08'0 2.7
2017-Oct-08 01:28N 34°07' E 135°08'0 0.4
2017-Oct-08 01:00N 34°07' E 135°08'0 0.0
2017-Oct-08 00:20N 34°07' E 135°08'0 0.1
2017-Oct-07 23:27N 34°07' E 135°07'0 0.0
2017-Oct-07 23:00N 34°07' E 135°07'0 0.0
2017-Oct-07 22:01N 34°07' E 135°07'0 0.0
2017-Oct-07 21:56N 34°07' E 135°07'0 0.1
2017-Oct-07 21:30N 34°07' E 135°07'0 0.0
2017-Oct-07 20:14N 34°07' E 135°07'0 0.0
2017-Oct-07 19:55N 34°07' E 135°07'0 0.1
2017-Oct-07 19:16N 34°07' E 135°08'0 0.1
2017-Oct-07 18:40N 34°07' E 135°07'0 0.1
2017-Oct-07 18:21N 34°07' E 135°07'0 0.0
2017-Oct-07 17:48N 34°07' E 135°07'0 0.1
2017-Oct-07 17:15N 34°07' E 135°08'0 0.0
2017-Oct-07 16:59N 34°07' E 135°08'0 0.1
2017-Oct-07 16:29N 34°07' E 135°08'0 0.0
2017-Oct-07 15:43N 34°07' E 135°08'0 0.0
2017-Oct-07 15:22N 34°07' E 135°08'0 0.1
2017-Oct-07 14:51N 34°07' E 135°07'0 0.1
2017-Oct-07 14:30N 34°07' E 135°08'0 0.0
2017-Oct-07 12:44N 34°07' E 135°08'0 0.0
2017-Oct-07 12:29N 34°07' E 135°08'0 0.0
2017-Oct-07 11:59N 34°07' E 135°08'0 0.0
2017-Oct-07 11:30N 34°07' E 135°08'0 0.0
2017-Oct-07 11:00N 34°07' E 135°08'0 0.0
2017-Oct-07 10:27N 34°07' E 135°08'0 0.0
2017-Oct-07 10:00N 34°07' E 135°08'0 0.0
2017-Oct-07 09:30N 34°07' E 135°08'0 0.0
2017-Oct-07 08:51N 34°07' E 135°08'0 0.0
2017-Oct-07 08:27N 34°07' E 135°08'0 0.0
2017-Oct-07 08:00N 34°07' E 135°08'0 0.0
2017-Oct-07 07:30N 34°07' E 135°08'0 0.0
2017-Oct-07 07:00N 34°07' E 135°08'0 0.0
2017-Oct-07 06:31N 34°07' E 135°08'0 0.0
2017-Oct-07 05:58N 34°07' E 135°08'0 0.0
2017-Oct-07 05:30N 34°07' E 135°08'0 0.0
2017-Oct-07 05:00N 34°07' E 135°08'0 0.0
2017-Oct-07 04:30N 34°07' E 135°08'0 0.0
2017-Oct-07 04:00N 34°07' E 135°08'0 0.0
2017-Oct-07 03:30N 34°07' E 135°08'0 0.2
2017-Oct-07 03:00N 34°07' E 135°08'0 0.1
2017-Oct-07 00:02N 34°07' E 135°08'0 1.9
2017-Oct-07 00:00N 34°07' E 135°08'2 3.1
2017-Oct-06 23:30N 34°09' E 135°07'1 2.1
2017-Oct-06 23:00N 34°09' E 135°08'0 0.0
2017-Oct-06 22:30N 34°09' E 135°08'0 0.0
2017-Oct-06 21:59N 34°09' E 135°08'0 0.1
2017-Oct-06 21:30N 34°09' E 135°08'0 0.0
2017-Oct-06 21:00N 34°09' E 135°08'0 0.1
2017-Oct-06 20:30N 34°09' E 135°08'0 0.0
2017-Oct-06 20:00N 34°09' E 135°08'0 0.0
2017-Oct-06 19:30N 34°09' E 135°08'0 0.1
2017-Oct-06 19:00N 34°09' E 135°08'0 0.0
2017-Oct-06 18:30N 34°09' E 135°08'0 0.1
2017-Oct-06 17:59N 34°09' E 135°08'0 0.1
2017-Oct-06 17:30N 34°09' E 135°08'0 0.1
2017-Oct-06 17:00N 34°09' E 135°08'0 0.1
2017-Oct-06 16:29N 34°09' E 135°08'0 0.0
2017-Oct-06 15:53N 34°09' E 135°08'0 0.0
2017-Oct-06 15:30N 34°09' E 135°08'0 0.1
2017-Oct-06 15:00N 34°09' E 135°08'0 0.0
2017-Oct-06 14:31N 34°09' E 135°08'0 0.0
2017-Oct-06 14:00N 34°09' E 135°08'0 0.1
2017-Oct-06 13:30N 34°09' E 135°08'0 0.0
2017-Oct-06 13:01N 34°09' E 135°08'0 0.0
2017-Oct-06 12:30N 34°09' E 135°08'0 0.0
2017-Oct-06 12:00N 34°09' E 135°08'0 0.0
2017-Oct-06 11:30N 34°09' E 135°08'0 0.0
2017-Oct-06 11:00N 34°09' E 135°08'0 0.0
2017-Oct-06 10:30N 34°09' E 135°08'0 0.1
2017-Oct-06 10:00N 34°09' E 135°08'0 0.0
2017-Oct-06 09:30N 34°09' E 135°08'0 0.0
2017-Oct-06 09:00N 34°09' E 135°08'0 0.0
2017-Oct-06 08:30N 34°09' E 135°08'0 0.0
2017-Oct-06 08:00N 34°09' E 135°08'0 0.0
2017-Oct-06 07:30N 34°09' E 135°08'0 0.2
2017-Oct-06 07:00N 34°09' E 135°08'611.6
2017-Oct-06 06:30N 34°08' E 135°01'  

Dump ship's entire track history